sensor_id;sensor_type;location;lat;lon;timestamp;P1;durP1;ratioP1;P2;durP2;ratioP2
69008;SDS011;56065;52.472;13.380;2023-09-12T00:02:13;16.83;;;7.00;;
69008;SDS011;56065;52.472;13.380;2023-09-12T00:04:38;14.97;;;6.83;;
69008;SDS011;56065;52.472;13.380;2023-09-12T00:07:03;13.85;;;6.85;;
69008;SDS011;56065;52.472;13.380;2023-09-12T00:09:29;15.00;;;7.13;;
69008;SDS011;56065;52.472;13.380;2023-09-12T00:11:54;15.73;;;7.30;;
69008;SDS011;56065;52.472;13.380;2023-09-12T00:14:19;16.93;;;6.67;;
69008;SDS011;56065;52.472;13.380;2023-09-12T00:16:45;16.17;;;7.00;;
69008;SDS011;56065;52.472;13.380;2023-09-12T00:19:11;15.98;;;7.38;;
69008;SDS011;56065;52.472;13.380;2023-09-12T00:21:37;14.57;;;7.30;;
69008;SDS011;56065;52.472;13.380;2023-09-12T00:24:02;15.57;;;7.53;;
69008;SDS011;56065;52.472;13.380;2023-09-12T00:26:28;14.27;;;7.10;;
69008;SDS011;56065;52.472;13.380;2023-09-12T00:28:55;14.07;;;6.88;;
69008;SDS011;56065;52.472;13.380;2023-09-12T00:31:21;13.23;;;6.67;;
69008;SDS011;56065;52.472;13.380;2023-09-12T00:33:46;17.30;;;7.73;;
69008;SDS011;56065;52.472;13.380;2023-09-12T00:36:11;15.13;;;7.07;;
69008;SDS011;56065;52.472;13.380;2023-09-12T00:38:37;15.70;;;7.28;;
69008;SDS011;56065;52.472;13.380;2023-09-12T00:41:02;18.63;;;7.83;;
69008;SDS011;56065;52.472;13.380;2023-09-12T00:43:27;16.20;;;7.67;;
69008;SDS011;56065;52.472;13.380;2023-09-12T00:45:53;18.03;;;7.17;;
69008;SDS011;56065;52.472;13.380;2023-09-12T00:48:18;13.80;;;7.30;;
69008;SDS011;56065;52.472;13.380;2023-09-12T00:50:46;15.50;;;7.25;;
69008;SDS011;56065;52.472;13.380;2023-09-12T00:53:14;14.63;;;7.20;;
69008;SDS011;56065;52.472;13.380;2023-09-12T00:55:42;16.20;;;7.65;;
69008;SDS011;56065;52.472;13.380;2023-09-12T00:58:14;15.37;;;7.47;;
69008;SDS011;56065;52.472;13.380;2023-09-12T01:00:40;14.73;;;7.15;;
69008;SDS011;56065;52.472;13.380;2023-09-12T01:03:06;13.93;;;6.72;;
69008;SDS011;56065;52.472;13.380;2023-09-12T01:05:32;13.60;;;6.97;;
69008;SDS011;56065;52.472;13.380;2023-09-12T01:07:59;14.82;;;6.93;;
69008;SDS011;56065;52.472;13.380;2023-09-12T01:10:24;13.40;;;7.65;;
69008;SDS011;56065;52.472;13.380;2023-09-12T01:12:50;13.23;;;6.60;;
69008;SDS011;56065;52.472;13.380;2023-09-12T01:15:15;13.40;;;7.47;;
69008;SDS011;56065;52.472;13.380;2023-09-12T01:17:42;13.75;;;6.90;;
69008;SDS011;56065;52.472;13.380;2023-09-12T01:20:08;11.98;;;6.63;;
69008;SDS011;56065;52.472;13.380;2023-09-12T01:27:54;12.00;;;6.63;;
69008;SDS011;56065;52.472;13.380;2023-09-12T01:30:21;10.93;;;6.53;;
69008;SDS011;56065;52.472;13.380;2023-09-12T01:32:48;14.50;;;6.97;;
69008;SDS011;56065;52.472;13.380;2023-09-12T01:35:14;11.48;;;6.65;;
69008;SDS011;56065;52.472;13.380;2023-09-12T01:37:40;12.90;;;7.20;;
69008;SDS011;56065;52.472;13.380;2023-09-12T01:40:05;12.87;;;7.50;;
69008;SDS011;56065;52.472;13.380;2023-09-12T01:42:40;13.25;;;7.00;;
69008;SDS011;56065;52.472;13.380;2023-09-12T01:45:09;10.93;;;6.25;;
69008;SDS011;56065;52.472;13.380;2023-09-12T01:47:36;12.63;;;6.95;;
69008;SDS011;56065;52.472;13.380;2023-09-12T01:50:03;14.80;;;7.28;;
69008;SDS011;56065;52.472;13.380;2023-09-12T01:52:30;13.47;;;7.50;;
69008;SDS011;56065;52.472;13.380;2023-09-12T01:54:57;15.52;;;7.65;;
69008;SDS011;56065;52.472;13.380;2023-09-12T01:57:23;14.98;;;7.00;;
69008;SDS011;56065;52.472;13.380;2023-09-12T01:59:50;12.68;;;6.55;;
69008;SDS011;56065;52.472;13.380;2023-09-12T02:02:15;15.70;;;7.17;;
69008;SDS011;56065;52.472;13.380;2023-09-12T02:04:42;13.57;;;6.85;;
69008;SDS011;56065;52.472;13.380;2023-09-12T02:07:15;13.95;;;6.40;;
69008;SDS011;56065;52.472;13.380;2023-09-12T02:09:41;13.80;;;6.60;;
69008;SDS011;56065;52.472;13.380;2023-09-12T02:12:06;12.07;;;6.37;;
69008;SDS011;56065;52.472;13.380;2023-09-12T02:14:31;12.50;;;6.50;;
69008;SDS011;56065;52.472;13.380;2023-09-12T02:16:57;12.53;;;6.97;;
69008;SDS011;56065;52.472;13.380;2023-09-12T02:19:22;11.50;;;7.20;;
69008;SDS011;56065;52.472;13.380;2023-09-12T02:21:47;14.33;;;7.20;;
69008;SDS011;56065;52.472;13.380;2023-09-12T02:24:13;12.30;;;6.20;;
69008;SDS011;56065;52.472;13.380;2023-09-12T02:26:38;13.63;;;7.53;;
69008;SDS011;56065;52.472;13.380;2023-09-12T02:29:03;14.63;;;6.73;;
69008;SDS011;56065;52.472;13.380;2023-09-12T02:31:31;13.65;;;6.97;;
69008;SDS011;56065;52.472;13.380;2023-09-12T02:33:56;12.67;;;7.07;;
69008;SDS011;56065;52.472;13.380;2023-09-12T02:36:21;14.63;;;7.00;;
69008;SDS011;56065;52.472;13.380;2023-09-12T02:38:47;14.20;;;6.53;;
69008;SDS011;56065;52.472;13.380;2023-09-12T02:41:12;12.83;;;7.17;;
69008;SDS011;56065;52.472;13.380;2023-09-12T02:43:37;13.00;;;7.27;;
69008;SDS011;56065;52.472;13.380;2023-09-12T02:46:03;14.20;;;7.20;;
69008;SDS011;56065;52.472;13.380;2023-09-12T02:48:28;14.00;;;7.07;;
69008;SDS011;56065;52.472;13.380;2023-09-12T02:50:54;15.27;;;7.27;;
69008;SDS011;56065;52.472;13.380;2023-09-12T02:53:20;12.02;;;6.88;;
69008;SDS011;56065;52.472;13.380;2023-09-12T02:55:45;12.47;;;6.90;;
69008;SDS011;56065;52.472;13.380;2023-09-12T02:58:10;14.17;;;7.93;;
69008;SDS011;56065;52.472;13.380;2023-09-12T03:00:39;15.00;;;7.33;;
69008;SDS011;56065;52.472;13.380;2023-09-12T03:03:05;14.60;;;7.28;;
69008;SDS011;56065;52.472;13.380;2023-09-12T03:05:31;16.47;;;7.80;;
69008;SDS011;56065;52.472;13.380;2023-09-12T03:07:56;15.23;;;7.27;;
69008;SDS011;56065;52.472;13.380;2023-09-12T03:10:22;14.63;;;7.63;;
69008;SDS011;56065;52.472;13.380;2023-09-12T03:12:47;15.95;;;7.47;;
69008;SDS011;56065;52.472;13.380;2023-09-12T03:15:12;13.67;;;7.20;;
69008;SDS011;56065;52.472;13.380;2023-09-12T03:17:38;15.23;;;7.40;;
69008;SDS011;56065;52.472;13.380;2023-09-12T03:20:03;14.77;;;6.97;;
69008;SDS011;56065;52.472;13.380;2023-09-12T03:22:32;13.88;;;8.18;;
69008;SDS011;56065;52.472;13.380;2023-09-12T03:25:02;18.47;;;8.70;;
69008;SDS011;56065;52.472;13.380;2023-09-12T03:27:28;16.15;;;8.63;;
69008;SDS011;56065;52.472;13.380;2023-09-12T03:29:53;14.53;;;7.10;;
69008;SDS011;56065;52.472;13.380;2023-09-12T03:32:19;12.87;;;7.43;;
69008;SDS011;56065;52.472;13.380;2023-09-12T03:34:44;14.82;;;8.20;;
69008;SDS011;56065;52.472;13.380;2023-09-12T03:37:09;13.97;;;8.03;;
69008;SDS011;56065;52.472;13.380;2023-09-12T03:39:35;15.33;;;7.97;;
69008;SDS011;56065;52.472;13.380;2023-09-12T03:42:00;14.80;;;8.23;;
69008;SDS011;56065;52.472;13.380;2023-09-12T03:44:25;17.03;;;8.00;;
69008;SDS011;56065;52.472;13.380;2023-09-12T03:46:51;15.90;;;7.77;;
69008;SDS011;56065;52.472;13.380;2023-09-12T03:49:16;16.07;;;8.17;;
69008;SDS011;56065;52.472;13.380;2023-09-12T03:51:41;14.40;;;8.20;;
69008;SDS011;56065;52.472;13.380;2023-09-12T03:54:07;16.13;;;8.50;;
69008;SDS011;56065;52.472;13.380;2023-09-12T03:56:32;17.13;;;9.23;;
69008;SDS011;56065;52.472;13.380;2023-09-12T03:58:57;14.00;;;7.87;;
69008;SDS011;56065;52.472;13.380;2023-09-12T04:01:24;14.85;;;8.35;;
69008;SDS011;56065;52.472;13.380;2023-09-12T04:03:50;18.93;;;8.23;;
69008;SDS011;56065;52.472;13.380;2023-09-12T04:06:15;16.57;;;8.37;;
69008;SDS011;56065;52.472;13.380;2023-09-12T04:08:40;16.87;;;8.90;;
69008;SDS011;56065;52.472;13.380;2023-09-12T04:11:06;14.93;;;8.40;;
69008;SDS011;56065;52.472;13.380;2023-09-12T04:13:31;15.73;;;8.67;;
69008;SDS011;56065;52.472;13.380;2023-09-12T04:15:56;17.73;;;8.50;;
69008;SDS011;56065;52.472;13.380;2023-09-12T04:18:22;17.27;;;8.00;;
69008;SDS011;56065;52.472;13.380;2023-09-12T04:20:47;19.50;;;9.10;;
69008;SDS011;56065;52.472;13.380;2023-09-12T04:23:12;14.57;;;8.27;;
69008;SDS011;56065;52.472;13.380;2023-09-12T04:25:41;18.70;;;7.95;;
69008;SDS011;56065;52.472;13.380;2023-09-12T04:28:08;16.08;;;7.68;;
69008;SDS011;56065;52.472;13.380;2023-09-12T04:30:34;18.35;;;8.48;;
69008;SDS011;56065;52.472;13.380;2023-09-12T04:33:00;14.93;;;8.23;;
69008;SDS011;56065;52.472;13.380;2023-09-12T04:35:25;16.80;;;8.10;;
69008;SDS011;56065;52.472;13.380;2023-09-12T04:37:51;15.55;;;7.90;;
69008;SDS011;56065;52.472;13.380;2023-09-12T04:40:16;15.97;;;7.97;;
69008;SDS011;56065;52.472;13.380;2023-09-12T04:42:42;15.03;;;8.57;;
69008;SDS011;56065;52.472;13.380;2023-09-12T04:45:07;12.37;;;7.40;;
69008;SDS011;56065;52.472;13.380;2023-09-12T04:47:33;16.10;;;8.23;;
69008;SDS011;56065;52.472;13.380;2023-09-12T04:49:58;14.57;;;8.30;;
69008;SDS011;56065;52.472;13.380;2023-09-12T04:52:25;16.17;;;8.18;;
69008;SDS011;56065;52.472;13.380;2023-09-12T04:54:50;17.97;;;8.33;;
69008;SDS011;56065;52.472;13.380;2023-09-12T04:57:15;14.00;;;7.60;;
69008;SDS011;56065;52.472;13.380;2023-09-12T04:59:41;15.93;;;7.73;;
69008;SDS011;56065;52.472;13.380;2023-09-12T05:02:06;13.53;;;7.37;;
69008;SDS011;56065;52.472;13.380;2023-09-12T05:04:31;16.27;;;7.97;;
69008;SDS011;56065;52.472;13.380;2023-09-12T05:06:57;17.83;;;8.00;;
69008;SDS011;56065;52.472;13.380;2023-09-12T05:09:22;15.07;;;7.80;;
69008;SDS011;56065;52.472;13.380;2023-09-12T05:11:47;15.07;;;7.67;;
69008;SDS011;56065;52.472;13.380;2023-09-12T05:14:13;16.33;;;8.97;;
69008;SDS011;56065;52.472;13.380;2023-09-12T05:16:38;17.33;;;8.80;;
69008;SDS011;56065;52.472;13.380;2023-09-12T05:19:03;19.17;;;9.90;;
69008;SDS011;56065;52.472;13.380;2023-09-12T05:21:29;15.80;;;8.45;;
69008;SDS011;56065;52.472;13.380;2023-09-12T05:23:54;15.87;;;9.47;;
69008;SDS011;56065;52.472;13.380;2023-09-12T05:26:20;15.77;;;8.33;;
69008;SDS011;56065;52.472;13.380;2023-09-12T05:28:45;15.17;;;9.30;;
69008;SDS011;56065;52.472;13.380;2023-09-12T05:31:10;16.33;;;8.60;;
69008;SDS011;56065;52.472;13.380;2023-09-12T05:33:36;16.93;;;8.90;;
69008;SDS011;56065;52.472;13.380;2023-09-12T05:36:01;21.47;;;9.80;;
69008;SDS011;56065;52.472;13.380;2023-09-12T05:38:27;18.30;;;8.50;;
69008;SDS011;56065;52.472;13.380;2023-09-12T05:40:52;16.53;;;9.20;;
69008;SDS011;56065;52.472;13.380;2023-09-12T05:43:18;15.60;;;9.57;;
69008;SDS011;56065;52.472;13.380;2023-09-12T05:45:43;23.30;;;9.43;;
69008;SDS011;56065;52.472;13.380;2023-09-12T05:48:08;18.43;;;8.87;;
69008;SDS011;56065;52.472;13.380;2023-09-12T05:50:34;17.63;;;9.13;;
69008;SDS011;56065;52.472;13.380;2023-09-12T05:53:01;17.40;;;8.20;;
69008;SDS011;56065;52.472;13.380;2023-09-12T05:55:27;14.68;;;7.85;;
69008;SDS011;56065;52.472;13.380;2023-09-12T05:57:52;15.13;;;8.87;;
69008;SDS011;56065;52.472;13.380;2023-09-12T06:00:17;15.30;;;7.60;;
69008;SDS011;56065;52.472;13.380;2023-09-12T06:02:43;14.60;;;8.17;;
69008;SDS011;56065;52.472;13.380;2023-09-12T06:05:09;16.08;;;8.48;;
69008;SDS011;56065;52.472;13.380;2023-09-12T06:07:34;13.93;;;8.13;;
69008;SDS011;56065;52.472;13.380;2023-09-12T06:10:00;13.75;;;7.93;;
69008;SDS011;56065;52.472;13.380;2023-09-12T06:12:26;15.70;;;7.70;;
69008;SDS011;56065;52.472;13.380;2023-09-12T06:14:51;17.03;;;7.90;;
69008;SDS011;56065;52.472;13.380;2023-09-12T06:17:18;13.50;;;7.78;;
69008;SDS011;56065;52.472;13.380;2023-09-12T06:19:43;12.40;;;7.10;;
69008;SDS011;56065;52.472;13.380;2023-09-12T06:22:08;19.73;;;11.00;;
69008;SDS011;56065;52.472;13.380;2023-09-12T06:24:34;16.13;;;8.47;;
69008;SDS011;56065;52.472;13.380;2023-09-12T06:26:59;13.63;;;7.15;;
69008;SDS011;56065;52.472;13.380;2023-09-12T06:29:24;14.87;;;7.63;;
69008;SDS011;56065;52.472;13.380;2023-09-12T06:31:50;13.17;;;7.73;;
69008;SDS011;56065;52.472;13.380;2023-09-12T06:34:15;17.30;;;8.27;;
69008;SDS011;56065;52.472;13.380;2023-09-12T06:36:40;13.97;;;7.07;;
69008;SDS011;56065;52.472;13.380;2023-09-12T06:39:09;14.30;;;7.60;;
69008;SDS011;56065;52.472;13.380;2023-09-12T06:41:35;15.03;;;7.90;;
69008;SDS011;56065;52.472;13.380;2023-09-12T06:44:00;14.30;;;7.47;;
69008;SDS011;56065;52.472;13.380;2023-09-12T06:46:27;16.80;;;7.67;;
69008;SDS011;56065;52.472;13.380;2023-09-12T06:48:53;15.68;;;7.40;;
69008;SDS011;56065;52.472;13.380;2023-09-12T06:51:18;14.37;;;6.70;;
69008;SDS011;56065;52.472;13.380;2023-09-12T06:53:48;14.07;;;6.88;;
69008;SDS011;56065;52.472;13.380;2023-09-12T06:56:14;13.57;;;6.70;;
69008;SDS011;56065;52.472;13.380;2023-09-12T06:58:39;13.43;;;7.70;;
69008;SDS011;56065;52.472;13.380;2023-09-12T07:01:05;13.13;;;6.77;;
69008;SDS011;56065;52.472;13.380;2023-09-12T07:03:34;16.98;;;7.25;;
69008;SDS011;56065;52.472;13.380;2023-09-12T07:06:01;12.67;;;6.93;;
69008;SDS011;56065;52.472;13.380;2023-09-12T07:08:28;16.95;;;9.20;;
69008;SDS011;56065;52.472;13.380;2023-09-12T07:10:55;17.08;;;6.50;;
69008;SDS011;56065;52.472;13.380;2023-09-12T07:13:21;16.98;;;7.38;;
69008;SDS011;56065;52.472;13.380;2023-09-12T07:15:47;16.77;;;6.83;;
69008;SDS011;56065;52.472;13.380;2023-09-12T07:18:12;14.63;;;6.57;;
69008;SDS011;56065;52.472;13.380;2023-09-12T07:20:39;14.70;;;6.67;;
69008;SDS011;56065;52.472;13.380;2023-09-12T07:23:05;11.25;;;6.10;;
69008;SDS011;56065;52.472;13.380;2023-09-12T07:25:30;11.27;;;6.27;;
69008;SDS011;56065;52.472;13.380;2023-09-12T07:28:00;11.98;;;6.00;;
69008;SDS011;56065;52.472;13.380;2023-09-12T07:30:25;11.47;;;6.13;;
69008;SDS011;56065;52.472;13.380;2023-09-12T07:32:51;15.83;;;6.80;;
69008;SDS011;56065;52.472;13.380;2023-09-12T07:35:16;10.45;;;5.70;;
69008;SDS011;56065;52.472;13.380;2023-09-12T07:37:42;13.27;;;7.30;;
69008;SDS011;56065;52.472;13.380;2023-09-12T07:40:07;13.03;;;6.43;;
69008;SDS011;56065;52.472;13.380;2023-09-12T07:42:34;13.77;;;6.18;;
69008;SDS011;56065;52.472;13.380;2023-09-12T07:45:01;13.33;;;6.80;;
69008;SDS011;56065;52.472;13.380;2023-09-12T07:47:28;12.38;;;6.28;;
69008;SDS011;56065;52.472;13.380;2023-09-12T07:49:53;10.17;;;6.27;;
69008;SDS011;56065;52.472;13.380;2023-09-12T07:52:19;12.15;;;6.50;;
69008;SDS011;56065;52.472;13.380;2023-09-12T07:54:44;11.70;;;6.33;;
69008;SDS011;56065;52.472;13.380;2023-09-12T07:57:09;11.37;;;5.93;;
69008;SDS011;56065;52.472;13.380;2023-09-12T07:59:35;10.27;;;6.10;;
69008;SDS011;56065;52.472;13.380;2023-09-12T08:02:00;15.33;;;5.90;;
69008;SDS011;56065;52.472;13.380;2023-09-12T08:04:25;11.23;;;5.70;;
69008;SDS011;56065;52.472;13.380;2023-09-12T08:06:51;11.90;;;5.68;;
69008;SDS011;56065;52.472;13.380;2023-09-12T08:09:16;11.53;;;5.93;;
69008;SDS011;56065;52.472;13.380;2023-09-12T08:11:42;13.07;;;6.70;;
69008;SDS011;56065;52.472;13.380;2023-09-12T08:14:07;13.13;;;5.50;;
69008;SDS011;56065;52.472;13.380;2023-09-12T08:18:58;14.68;;;6.00;;
69008;SDS011;56065;52.472;13.380;2023-09-12T08:21:23;13.70;;;5.30;;
69008;SDS011;56065;52.472;13.380;2023-09-12T08:23:48;17.93;;;6.67;;
69008;SDS011;56065;52.472;13.380;2023-09-12T08:26:14;12.20;;;6.03;;
69008;SDS011;56065;52.472;13.380;2023-09-12T08:28:39;11.00;;;5.80;;
69008;SDS011;56065;52.472;13.380;2023-09-12T08:31:05;9.05;;;5.57;;
69008;SDS011;56065;52.472;13.380;2023-09-12T08:33:30;13.77;;;6.53;;
69008;SDS011;56065;52.472;13.380;2023-09-12T08:35:56;16.50;;;6.10;;
69008;SDS011;56065;52.472;13.380;2023-09-12T08:38:21;13.20;;;6.50;;
69008;SDS011;56065;52.472;13.380;2023-09-12T08:40:50;14.27;;;6.80;;
69008;SDS011;56065;52.472;13.380;2023-09-12T08:43:15;18.98;;;7.93;;
69008;SDS011;56065;52.472;13.380;2023-09-12T08:45:41;11.90;;;7.10;;
69008;SDS011;56065;52.472;13.380;2023-09-12T08:48:09;14.23;;;6.03;;
69008;SDS011;56065;52.472;13.380;2023-09-12T08:50:35;15.27;;;6.17;;
69008;SDS011;56065;52.472;13.380;2023-09-12T08:53:01;15.93;;;6.53;;
69008;SDS011;56065;52.472;13.380;2023-09-12T08:55:28;10.40;;;6.22;;
69008;SDS011;56065;52.472;13.380;2023-09-12T08:57:54;12.45;;;6.00;;
69008;SDS011;56065;52.472;13.380;2023-09-12T09:00:21;12.80;;;6.60;;
69008;SDS011;56065;52.472;13.380;2023-09-12T09:02:47;11.60;;;6.30;;
69008;SDS011;56065;52.472;13.380;2023-09-12T09:05:15;13.90;;;6.22;;
69008;SDS011;56065;52.472;13.380;2023-09-12T09:07:42;15.38;;;6.18;;
69008;SDS011;56065;52.472;13.380;2023-09-12T09:10:14;17.55;;;5.85;;
69008;SDS011;56065;52.472;13.380;2023-09-12T09:12:43;17.10;;;5.53;;
69008;SDS011;56065;52.472;13.380;2023-09-12T09:15:19;12.60;;;5.65;;
69008;SDS011;56065;52.472;13.380;2023-09-12T09:18:06;17.67;;;5.90;;
69008;SDS011;56065;52.472;13.380;2023-09-12T09:20:32;15.27;;;5.70;;
69008;SDS011;56065;52.472;13.380;2023-09-12T09:23:08;17.38;;;6.47;;
69008;SDS011;56065;52.472;13.380;2023-09-12T09:25:36;17.23;;;5.82;;
69008;SDS011;56065;52.472;13.380;2023-09-12T09:28:07;19.05;;;6.32;;
69008;SDS011;56065;52.472;13.380;2023-09-12T09:30:51;18.33;;;7.03;;
69008;SDS011;56065;52.472;13.380;2023-09-12T09:33:19;23.73;;;6.85;;
69008;SDS011;56065;52.472;13.380;2023-09-12T09:35:45;23.08;;;6.75;;
69008;SDS011;56065;52.472;13.380;2023-09-12T09:38:12;16.17;;;6.90;;
69008;SDS011;56065;52.472;13.380;2023-09-12T09:40:41;18.48;;;6.75;;
69008;SDS011;56065;52.472;13.380;2023-09-12T09:43:08;18.67;;;6.77;;
69008;SDS011;56065;52.472;13.380;2023-09-12T09:45:41;17.60;;;7.10;;
69008;SDS011;56065;52.472;13.380;2023-09-12T09:48:08;13.77;;;6.70;;
69008;SDS011;56065;52.472;13.380;2023-09-12T09:50:34;14.03;;;6.40;;
69008;SDS011;56065;52.472;13.380;2023-09-12T09:53:02;21.60;;;7.32;;
69008;SDS011;56065;52.472;13.380;2023-09-12T09:55:29;19.55;;;7.20;;
69008;SDS011;56065;52.472;13.380;2023-09-12T09:57:55;14.38;;;6.80;;
69008;SDS011;56065;52.472;13.380;2023-09-12T10:00:22;17.67;;;7.43;;
69008;SDS011;56065;52.472;13.380;2023-09-12T10:02:49;18.30;;;7.30;;
69008;SDS011;56065;52.472;13.380;2023-09-12T10:05:15;15.60;;;7.50;;
69008;SDS011;56065;52.472;13.380;2023-09-12T10:07:42;16.33;;;7.27;;
69008;SDS011;56065;52.472;13.380;2023-09-12T10:10:11;14.77;;;6.97;;
69008;SDS011;56065;52.472;13.380;2023-09-12T10:12:39;16.67;;;7.60;;
69008;SDS011;56065;52.472;13.380;2023-09-12T10:15:10;14.53;;;7.13;;
69008;SDS011;56065;52.472;13.380;2023-09-12T10:17:38;15.80;;;7.55;;
69008;SDS011;56065;52.472;13.380;2023-09-12T10:20:08;16.25;;;7.32;;
69008;SDS011;56065;52.472;13.380;2023-09-12T10:22:40;14.43;;;7.30;;
69008;SDS011;56065;52.472;13.380;2023-09-12T10:25:14;14.75;;;7.15;;
69008;SDS011;56065;52.472;13.380;2023-09-12T10:27:40;20.70;;;8.23;;
69008;SDS011;56065;52.472;13.380;2023-09-12T10:30:06;13.88;;;7.55;;
69008;SDS011;56065;52.472;13.380;2023-09-12T10:32:33;13.43;;;7.50;;
69008;SDS011;56065;52.472;13.380;2023-09-12T10:34:59;19.93;;;8.07;;
69008;SDS011;56065;52.472;13.380;2023-09-12T10:37:25;20.88;;;8.43;;
69008;SDS011;56065;52.472;13.380;2023-09-12T10:39:53;19.75;;;8.65;;
69008;SDS011;56065;52.472;13.380;2023-09-12T10:42:19;14.95;;;8.43;;
69008;SDS011;56065;52.472;13.380;2023-09-12T10:44:45;16.13;;;8.63;;
69008;SDS011;56065;52.472;13.380;2023-09-12T10:47:11;20.30;;;7.95;;
69008;SDS011;56065;52.472;13.380;2023-09-12T10:49:39;16.30;;;8.25;;
69008;SDS011;56065;52.472;13.380;2023-09-12T10:52:08;16.35;;;8.38;;
69008;SDS011;56065;52.472;13.380;2023-09-12T10:54:37;17.83;;;7.77;;
69008;SDS011;56065;52.472;13.380;2023-09-12T10:57:04;19.13;;;8.00;;
69008;SDS011;56065;52.472;13.380;2023-09-12T10:59:31;17.75;;;8.27;;
69008;SDS011;56065;52.472;13.380;2023-09-12T11:02:45;19.45;;;8.18;;
69008;SDS011;56065;52.472;13.380;2023-09-12T11:04:56;14.97;;;7.63;;
69008;SDS011;56065;52.472;13.380;2023-09-12T11:12:40;18.83;;;7.63;;
69008;SDS011;56065;52.472;13.380;2023-09-12T11:15:07;15.70;;;6.90;;
69008;SDS011;56065;52.472;13.380;2023-09-12T11:17:43;20.97;;;7.83;;
69008;SDS011;56065;52.472;13.380;2023-09-12T11:20:12;17.80;;;7.63;;
69008;SDS011;56065;52.472;13.380;2023-09-12T11:22:43;19.42;;;7.55;;
69008;SDS011;56065;52.472;13.380;2023-09-12T11:25:22;16.48;;;7.47;;
69008;SDS011;56065;52.472;13.380;2023-09-12T11:30:15;18.80;;;7.60;;
69008;SDS011;56065;52.472;13.380;2023-09-12T11:32:49;15.63;;;6.57;;
69008;SDS011;56065;52.472;13.380;2023-09-12T11:35:16;21.45;;;7.63;;
69008;SDS011;56065;52.472;13.380;2023-09-12T11:37:51;16.30;;;7.35;;
69008;SDS011;56065;52.472;13.380;2023-09-12T11:42:57;12.80;;;6.47;;
69008;SDS011;56065;52.472;13.380;2023-09-12T11:45:22;13.77;;;7.00;;
69008;SDS011;56065;52.472;13.380;2023-09-12T11:47:48;18.17;;;6.57;;
69008;SDS011;56065;52.472;13.380;2023-09-12T11:50:33;11.20;;;6.45;;
69008;SDS011;56065;52.472;13.380;2023-09-12T11:53:07;14.52;;;6.30;;
69008;SDS011;56065;52.472;13.380;2023-09-12T11:55:43;12.13;;;5.47;;
69008;SDS011;56065;52.472;13.380;2023-09-12T11:58:10;14.15;;;5.75;;
69008;SDS011;56065;52.472;13.380;2023-09-12T12:00:37;16.05;;;5.90;;
69008;SDS011;56065;52.472;13.380;2023-09-12T12:03:02;12.77;;;6.53;;
69008;SDS011;56065;52.472;13.380;2023-09-12T12:05:29;14.60;;;5.80;;
69008;SDS011;56065;52.472;13.380;2023-09-12T12:07:54;16.15;;;6.40;;
69008;SDS011;56065;52.472;13.380;2023-09-12T12:10:20;27.53;;;7.70;;
69008;SDS011;56065;52.472;13.380;2023-09-12T12:12:45;25.97;;;6.87;;
69008;SDS011;56065;52.472;13.380;2023-09-12T12:15:11;21.67;;;6.55;;
69008;SDS011;56065;52.472;13.380;2023-09-12T12:17:37;21.85;;;6.47;;
69008;SDS011;56065;52.472;13.380;2023-09-12T12:20:06;18.90;;;6.63;;
69008;SDS011;56065;52.472;13.380;2023-09-12T12:22:35;25.45;;;6.47;;
69008;SDS011;56065;52.472;13.380;2023-09-12T12:25:05;21.02;;;6.72;;
69008;SDS011;56065;52.472;13.380;2023-09-12T12:27:35;30.90;;;7.47;;
69008;SDS011;56065;52.472;13.380;2023-09-12T12:30:02;21.83;;;6.13;;
69008;SDS011;56065;52.472;13.380;2023-09-12T12:32:28;17.30;;;5.93;;
69008;SDS011;56065;52.472;13.380;2023-09-12T12:34:53;25.33;;;5.83;;
69008;SDS011;56065;52.472;13.380;2023-09-12T12:37:19;23.35;;;6.43;;
69008;SDS011;56065;52.472;13.380;2023-09-12T12:39:44;30.00;;;7.13;;
69008;SDS011;56065;52.472;13.380;2023-09-12T12:42:09;24.73;;;6.97;;
69008;SDS011;56065;52.472;13.380;2023-09-12T12:44:35;27.70;;;6.87;;
69008;SDS011;56065;52.472;13.380;2023-09-12T12:47:05;39.17;;;8.40;;
69008;SDS011;56065;52.472;13.380;2023-09-12T12:49:35;30.27;;;7.43;;
69008;SDS011;56065;52.472;13.380;2023-09-12T12:52:11;36.43;;;19.57;;
69008;SDS011;56065;52.472;13.380;2023-09-12T12:54:36;29.90;;;10.32;;
69008;SDS011;56065;52.472;13.380;2023-09-12T12:57:02;26.53;;;9.03;;
69008;SDS011;56065;52.472;13.380;2023-09-12T12:59:27;28.05;;;9.27;;
69008;SDS011;56065;52.472;13.380;2023-09-12T13:01:54;28.03;;;8.57;;
69008;SDS011;56065;52.472;13.380;2023-09-12T13:04:20;35.95;;;9.48;;
69008;SDS011;56065;52.472;13.380;2023-09-12T13:06:45;33.17;;;9.60;;
69008;SDS011;56065;52.472;13.380;2023-09-12T13:09:11;22.83;;;8.90;;
69008;SDS011;56065;52.472;13.380;2023-09-12T13:11:36;29.67;;;8.00;;
69008;SDS011;56065;52.472;13.380;2023-09-12T13:14:03;31.73;;;8.27;;
69008;SDS011;56065;52.472;13.380;2023-09-12T13:16:35;25.67;;;7.50;;
69008;SDS011;56065;52.472;13.380;2023-09-12T13:19:01;23.92;;;7.10;;
69008;SDS011;56065;52.472;13.380;2023-09-12T13:21:27;25.60;;;9.85;;
69008;SDS011;56065;52.472;13.380;2023-09-12T13:23:53;27.77;;;6.97;;
69008;SDS011;56065;52.472;13.380;2023-09-12T13:26:18;28.27;;;10.63;;
69008;SDS011;56065;52.472;13.380;2023-09-12T13:28:44;51.57;;;9.57;;
69008;SDS011;56065;52.472;13.380;2023-09-12T13:31:09;20.27;;;7.38;;
69008;SDS011;56065;52.472;13.380;2023-09-12T13:33:35;51.17;;;31.20;;
69008;SDS011;56065;52.472;13.380;2023-09-12T13:36:00;27.57;;;11.00;;
69008;SDS011;56065;52.472;13.380;2023-09-12T13:38:26;19.10;;;6.68;;
69008;SDS011;56065;52.472;13.380;2023-09-12T13:40:51;23.50;;;8.13;;
69008;SDS011;56065;52.472;13.380;2023-09-12T13:43:16;15.63;;;5.63;;
69008;SDS011;56065;52.472;13.380;2023-09-12T13:45:42;20.00;;;6.00;;
69008;SDS011;56065;52.472;13.380;2023-09-12T13:48:07;18.67;;;6.70;;
69008;SDS011;56065;52.472;13.380;2023-09-12T13:50:33;15.82;;;6.10;;
69008;SDS011;56065;52.472;13.380;2023-09-12T13:52:59;16.67;;;6.10;;
69008;SDS011;56065;52.472;13.380;2023-09-12T13:55:31;16.63;;;5.90;;
69008;SDS011;56065;52.472;13.380;2023-09-12T13:58:03;15.47;;;5.70;;
69008;SDS011;56065;52.472;13.380;2023-09-12T14:00:29;15.18;;;7.05;;
69008;SDS011;56065;52.472;13.380;2023-09-12T14:02:55;18.27;;;6.10;;
69008;SDS011;56065;52.472;13.380;2023-09-12T14:05:21;22.10;;;6.90;;
69008;SDS011;56065;52.472;13.380;2023-09-12T14:07:46;17.77;;;6.90;;
69008;SDS011;56065;52.472;13.380;2023-09-12T14:10:12;16.63;;;6.27;;
69008;SDS011;56065;52.472;13.380;2023-09-12T14:12:38;14.90;;;6.63;;
69008;SDS011;56065;52.472;13.380;2023-09-12T14:15:03;23.77;;;6.13;;
69008;SDS011;56065;52.472;13.380;2023-09-12T14:17:31;14.63;;;6.22;;
69008;SDS011;56065;52.472;13.380;2023-09-12T14:19:57;15.80;;;6.00;;
69008;SDS011;56065;52.472;13.380;2023-09-12T14:22:22;18.23;;;5.87;;
69008;SDS011;56065;52.472;13.380;2023-09-12T14:24:47;13.93;;;5.50;;
69008;SDS011;56065;52.472;13.380;2023-09-12T14:27:13;14.00;;;5.30;;
69008;SDS011;56065;52.472;13.380;2023-09-12T14:29:38;18.70;;;5.85;;
69008;SDS011;56065;52.472;13.380;2023-09-12T14:32:04;12.60;;;5.60;;
69008;SDS011;56065;52.472;13.380;2023-09-12T14:34:29;12.27;;;5.50;;
69008;SDS011;56065;52.472;13.380;2023-09-12T14:36:57;16.10;;;5.50;;